Terminal Aerodrome Forecast
Issued by NWS

Home | Current Version | Previous Version | Text Only | Print | Product List | Glossary On
Versions: 1 2 3 4 5 6 7 8 9 10 11 12 13 14 15
000
FTUS43 KIWX 030500
TAFSBN
TAF
KSBN 030529Z 0306/0406 20003KT P6SM SCT060
      TEMPO 0309/0312 3SM BR
     FM031500 23007KT P6SM SCT250
     FM040000 17005KT P6SM BKN250=

USA.gov is the U.S. government's official web portal to all federal, state and local government web resources and services.